sensor_id;sensor_type;location;lat;lon;timestamp;P1;durP1;ratioP1;P2;durP2;ratioP2
11222;SDS011;5668;52.012;8.724;2022-08-21T00:01:16;4.13;;;2.40;;
11222;SDS011;5668;52.012;8.724;2022-08-21T00:03:47;4.63;;;2.80;;
11222;SDS011;5668;52.012;8.724;2022-08-21T00:06:16;4.00;;;2.65;;
11222;SDS011;5668;52.012;8.724;2022-08-21T00:08:44;3.85;;;2.45;;
11222;SDS011;5668;52.012;8.724;2022-08-21T00:11:11;5.43;;;2.95;;
11222;SDS011;5668;52.012;8.724;2022-08-21T00:13:38;3.67;;;2.78;;
11222;SDS011;5668;52.012;8.724;2022-08-21T00:16:06;4.28;;;2.75;;
11222;SDS011;5668;52.012;8.724;2022-08-21T00:18:33;4.80;;;2.92;;
11222;SDS011;5668;52.012;8.724;2022-08-21T00:21:00;5.38;;;2.80;;
11222;SDS011;5668;52.012;8.724;2022-08-21T00:23:29;5.20;;;3.00;;
11222;SDS011;5668;52.012;8.724;2022-08-21T00:25:58;6.60;;;2.95;;
11222;SDS011;5668;52.012;8.724;2022-08-21T00:28:25;4.22;;;2.83;;
11222;SDS011;5668;52.012;8.724;2022-08-21T00:30:53;5.22;;;3.42;;
11222;SDS011;5668;52.012;8.724;2022-08-21T00:33:21;5.18;;;2.75;;
11222;SDS011;5668;52.012;8.724;2022-08-21T00:35:49;4.90;;;2.95;;
11222;SDS011;5668;52.012;8.724;2022-08-21T00:38:16;6.93;;;2.72;;
11222;SDS011;5668;52.012;8.724;2022-08-21T00:40:46;4.30;;;3.00;;
11222;SDS011;5668;52.012;8.724;2022-08-21T00:43:16;4.07;;;2.83;;
11222;SDS011;5668;52.012;8.724;2022-08-21T00:45:46;5.95;;;2.90;;
11222;SDS011;5668;52.012;8.724;2022-08-21T00:48:13;2.92;;;2.63;;
11222;SDS011;5668;52.012;8.724;2022-08-21T00:50:42;4.93;;;2.70;;
11222;SDS011;5668;52.012;8.724;2022-08-21T00:53:12;4.53;;;2.95;;
11222;SDS011;5668;52.012;8.724;2022-08-21T00:55:41;5.45;;;2.90;;
11222;SDS011;5668;52.012;8.724;2022-08-21T00:58:11;3.67;;;2.72;;
11222;SDS011;5668;52.012;8.724;2022-08-21T01:00:40;3.75;;;3.13;;
11222;SDS011;5668;52.012;8.724;2022-08-21T01:03:14;5.05;;;2.95;;
11222;SDS011;5668;52.012;8.724;2022-08-21T01:05:43;4.35;;;3.13;;
11222;SDS011;5668;52.012;8.724;2022-08-21T01:08:11;5.30;;;3.17;;
11222;SDS011;5668;52.012;8.724;2022-08-21T01:10:42;6.28;;;2.90;;
11222;SDS011;5668;52.012;8.724;2022-08-21T01:13:11;3.50;;;3.03;;
11222;SDS011;5668;52.012;8.724;2022-08-21T01:15:42;2.80;;;2.50;;
11222;SDS011;5668;52.012;8.724;2022-08-21T01:18:12;5.32;;;2.83;;
11222;SDS011;5668;52.012;8.724;2022-08-21T01:20:42;5.20;;;3.03;;
11222;SDS011;5668;52.012;8.724;2022-08-21T01:23:13;4.55;;;3.05;;
11222;SDS011;5668;52.012;8.724;2022-08-21T01:25:40;3.92;;;2.80;;
11222;SDS011;5668;52.012;8.724;2022-08-21T01:28:09;4.88;;;2.88;;
11222;SDS011;5668;52.012;8.724;2022-08-21T01:30:40;4.60;;;3.15;;
11222;SDS011;5668;52.012;8.724;2022-08-21T01:33:09;3.85;;;3.10;;
11222;SDS011;5668;52.012;8.724;2022-08-21T01:35:37;4.53;;;2.83;;
11222;SDS011;5668;52.012;8.724;2022-08-21T01:38:04;7.07;;;3.35;;
11222;SDS011;5668;52.012;8.724;2022-08-21T01:40:33;4.47;;;2.78;;
11222;SDS011;5668;52.012;8.724;2022-08-21T01:43:00;4.50;;;3.13;;
11222;SDS011;5668;52.012;8.724;2022-08-21T01:45:28;4.10;;;3.03;;
11222;SDS011;5668;52.012;8.724;2022-08-21T01:47:55;4.18;;;2.55;;
11222;SDS011;5668;52.012;8.724;2022-08-21T01:50:22;4.32;;;2.60;;
11222;SDS011;5668;52.012;8.724;2022-08-21T01:52:50;5.93;;;2.95;;
11222;SDS011;5668;52.012;8.724;2022-08-21T01:55:18;5.57;;;2.95;;
11222;SDS011;5668;52.012;8.724;2022-08-21T01:57:47;4.95;;;2.70;;
11222;SDS011;5668;52.012;8.724;2022-08-21T02:00:16;6.22;;;2.92;;
11222;SDS011;5668;52.012;8.724;2022-08-21T02:02:45;3.47;;;3.08;;
11222;SDS011;5668;52.012;8.724;2022-08-21T02:05:12;5.38;;;2.95;;
11222;SDS011;5668;52.012;8.724;2022-08-21T02:07:41;3.67;;;2.75;;
11222;SDS011;5668;52.012;8.724;2022-08-21T02:10:11;3.60;;;2.60;;
11222;SDS011;5668;52.012;8.724;2022-08-21T02:12:41;3.67;;;2.85;;
11222;SDS011;5668;52.012;8.724;2022-08-21T02:15:10;4.63;;;2.80;;
11222;SDS011;5668;52.012;8.724;2022-08-21T02:17:38;4.07;;;3.03;;
11222;SDS011;5668;52.012;8.724;2022-08-21T02:20:06;4.13;;;2.50;;
11222;SDS011;5668;52.012;8.724;2022-08-21T02:22:35;3.17;;;2.60;;
11222;SDS011;5668;52.012;8.724;2022-08-21T02:25:03;3.80;;;2.90;;
11222;SDS011;5668;52.012;8.724;2022-08-21T02:27:36;6.85;;;2.70;;
11222;SDS011;5668;52.012;8.724;2022-08-21T02:30:06;4.70;;;2.92;;
11222;SDS011;5668;52.012;8.724;2022-08-21T02:32:35;4.03;;;2.30;;
11222;SDS011;5668;52.012;8.724;2022-08-21T02:35:03;5.63;;;2.83;;
11222;SDS011;5668;52.012;8.724;2022-08-21T02:37:31;2.45;;;2.25;;
11222;SDS011;5668;52.012;8.724;2022-08-21T02:39:59;6.68;;;2.70;;
11222;SDS011;5668;52.012;8.724;2022-08-21T02:42:27;4.00;;;3.20;;
11222;SDS011;5668;52.012;8.724;2022-08-21T02:44:55;4.35;;;2.90;;
11222;SDS011;5668;52.012;8.724;2022-08-21T02:47:22;3.83;;;2.60;;
11222;SDS011;5668;52.012;8.724;2022-08-21T02:49:51;3.90;;;2.80;;
11222;SDS011;5668;52.012;8.724;2022-08-21T02:52:19;3.63;;;2.50;;
11222;SDS011;5668;52.012;8.724;2022-08-21T02:54:46;6.10;;;2.55;;
11222;SDS011;5668;52.012;8.724;2022-08-21T02:57:14;4.97;;;2.70;;
11222;SDS011;5668;52.012;8.724;2022-08-21T02:59:41;5.00;;;2.80;;
11222;SDS011;5668;52.012;8.724;2022-08-21T03:02:09;3.35;;;2.38;;
11222;SDS011;5668;52.012;8.724;2022-08-21T03:04:36;4.03;;;2.70;;
11222;SDS011;5668;52.012;8.724;2022-08-21T03:07:05;3.65;;;2.67;;
11222;SDS011;5668;52.012;8.724;2022-08-21T03:09:32;3.85;;;3.40;;
11222;SDS011;5668;52.012;8.724;2022-08-21T03:11:59;5.90;;;4.13;;
11222;SDS011;5668;52.012;8.724;2022-08-21T03:14:27;5.15;;;3.80;;
11222;SDS011;5668;52.012;8.724;2022-08-21T03:16:54;4.70;;;3.30;;
11222;SDS011;5668;52.012;8.724;2022-08-21T03:19:21;4.35;;;3.78;;
11222;SDS011;5668;52.012;8.724;2022-08-21T03:21:48;5.07;;;3.80;;
11222;SDS011;5668;52.012;8.724;2022-08-21T03:24:17;5.28;;;3.45;;
11222;SDS011;5668;52.012;8.724;2022-08-21T03:26:44;6.53;;;3.78;;
11222;SDS011;5668;52.012;8.724;2022-08-21T03:29:11;4.30;;;3.80;;
11222;SDS011;5668;52.012;8.724;2022-08-21T03:31:38;4.40;;;3.83;;
11222;SDS011;5668;52.012;8.724;2022-08-21T03:34:06;4.07;;;3.55;;
11222;SDS011;5668;52.012;8.724;2022-08-21T03:36:33;4.88;;;3.15;;
11222;SDS011;5668;52.012;8.724;2022-08-21T03:39:00;3.97;;;3.60;;
11222;SDS011;5668;52.012;8.724;2022-08-21T03:41:29;3.20;;;2.90;;
11222;SDS011;5668;52.012;8.724;2022-08-21T03:43:57;3.65;;;3.30;;
11222;SDS011;5668;52.012;8.724;2022-08-21T03:46:24;5.07;;;3.40;;
11222;SDS011;5668;52.012;8.724;2022-08-21T03:48:52;3.95;;;3.15;;
11222;SDS011;5668;52.012;8.724;2022-08-21T03:51:20;5.03;;;3.35;;
11222;SDS011;5668;52.012;8.724;2022-08-21T03:53:47;3.75;;;3.03;;
11222;SDS011;5668;52.012;8.724;2022-08-21T03:56:15;4.97;;;3.15;;
11222;SDS011;5668;52.012;8.724;2022-08-21T03:58:43;6.68;;;3.47;;
11222;SDS011;5668;52.012;8.724;2022-08-21T04:01:10;5.05;;;3.58;;
11222;SDS011;5668;52.012;8.724;2022-08-21T04:03:38;3.75;;;3.15;;
11222;SDS011;5668;52.012;8.724;2022-08-21T04:06:05;5.63;;;3.42;;
11222;SDS011;5668;52.012;8.724;2022-08-21T04:08:33;3.33;;;3.00;;
11222;SDS011;5668;52.012;8.724;2022-08-21T04:11:01;6.75;;;3.40;;
11222;SDS011;5668;52.012;8.724;2022-08-21T04:13:28;4.70;;;3.20;;
11222;SDS011;5668;52.012;8.724;2022-08-21T04:15:57;4.00;;;3.03;;
11222;SDS011;5668;52.012;8.724;2022-08-21T04:18:24;5.82;;;2.78;;
11222;SDS011;5668;52.012;8.724;2022-08-21T04:20:51;3.80;;;3.40;;
11222;SDS011;5668;52.012;8.724;2022-08-21T04:23:20;4.68;;;3.05;;
11222;SDS011;5668;52.012;8.724;2022-08-21T04:25:48;5.15;;;3.90;;
11222;SDS011;5668;52.012;8.724;2022-08-21T04:28:15;5.18;;;3.53;;
11222;SDS011;5668;52.012;8.724;2022-08-21T04:30:42;7.13;;;4.60;;
11222;SDS011;5668;52.012;8.724;2022-08-21T04:33:11;4.82;;;4.07;;
11222;SDS011;5668;52.012;8.724;2022-08-21T04:35:39;4.70;;;4.30;;
11222;SDS011;5668;52.012;8.724;2022-08-21T04:38:07;5.80;;;4.50;;
11222;SDS011;5668;52.012;8.724;2022-08-21T04:40:34;5.05;;;4.10;;
11222;SDS011;5668;52.012;8.724;2022-08-21T04:43:02;5.75;;;4.00;;
11222;SDS011;5668;52.012;8.724;2022-08-21T04:45:33;5.82;;;4.30;;
11222;SDS011;5668;52.012;8.724;2022-08-21T04:48:03;5.80;;;4.72;;
11222;SDS011;5668;52.012;8.724;2022-08-21T04:50:35;7.28;;;4.97;;
11222;SDS011;5668;52.012;8.724;2022-08-21T04:53:05;4.80;;;4.32;;
11222;SDS011;5668;52.012;8.724;2022-08-21T04:55:36;5.05;;;4.20;;
11222;SDS011;5668;52.012;8.724;2022-08-21T04:58:04;7.18;;;5.07;;
11222;SDS011;5668;52.012;8.724;2022-08-21T05:00:33;5.50;;;3.92;;
11222;SDS011;5668;52.012;8.724;2022-08-21T05:03:01;5.60;;;4.22;;
11222;SDS011;5668;52.012;8.724;2022-08-21T05:05:32;6.30;;;4.15;;
11222;SDS011;5668;52.012;8.724;2022-08-21T05:08:01;4.32;;;3.92;;
11222;SDS011;5668;52.012;8.724;2022-08-21T05:10:30;5.30;;;4.40;;
11222;SDS011;5668;52.012;8.724;2022-08-21T05:12:58;4.97;;;3.80;;
11222;SDS011;5668;52.012;8.724;2022-08-21T05:15:26;4.63;;;3.75;;
11222;SDS011;5668;52.012;8.724;2022-08-21T05:17:55;4.45;;;3.78;;
11222;SDS011;5668;52.012;8.724;2022-08-21T05:20:23;4.90;;;4.05;;
11222;SDS011;5668;52.012;8.724;2022-08-21T05:22:51;5.43;;;3.47;;
11222;SDS011;5668;52.012;8.724;2022-08-21T05:25:18;6.25;;;3.58;;
11222;SDS011;5668;52.012;8.724;2022-08-21T05:27:46;4.80;;;3.97;;
11222;SDS011;5668;52.012;8.724;2022-08-21T05:30:13;4.82;;;3.97;;
11222;SDS011;5668;52.012;8.724;2022-08-21T05:32:40;4.45;;;3.30;;
11222;SDS011;5668;52.012;8.724;2022-08-21T05:35:07;4.60;;;4.18;;
11222;SDS011;5668;52.012;8.724;2022-08-21T05:37:36;5.60;;;3.95;;
11222;SDS011;5668;52.012;8.724;2022-08-21T05:40:06;5.30;;;4.25;;
11222;SDS011;5668;52.012;8.724;2022-08-21T05:42:36;6.22;;;4.40;;
11222;SDS011;5668;52.012;8.724;2022-08-21T05:45:03;6.53;;;4.35;;
11222;SDS011;5668;52.012;8.724;2022-08-21T05:47:31;5.35;;;4.30;;
11222;SDS011;5668;52.012;8.724;2022-08-21T05:49:58;8.52;;;4.68;;
11222;SDS011;5668;52.012;8.724;2022-08-21T05:52:25;5.00;;;4.40;;
11222;SDS011;5668;52.012;8.724;2022-08-21T05:54:52;5.70;;;4.43;;
11222;SDS011;5668;52.012;8.724;2022-08-21T05:57:21;6.00;;;4.72;;
11222;SDS011;5668;52.012;8.724;2022-08-21T05:59:50;5.70;;;5.03;;
11222;SDS011;5668;52.012;8.724;2022-08-21T06:02:19;9.65;;;5.70;;
11222;SDS011;5668;52.012;8.724;2022-08-21T06:04:47;8.07;;;6.78;;
11222;SDS011;5668;52.012;8.724;2022-08-21T06:07:14;7.32;;;6.30;;
11222;SDS011;5668;52.012;8.724;2022-08-21T06:09:42;8.20;;;7.30;;
11222;SDS011;5668;52.012;8.724;2022-08-21T06:12:10;9.90;;;7.05;;
11222;SDS011;5668;52.012;8.724;2022-08-21T06:14:40;8.85;;;6.35;;
11222;SDS011;5668;52.012;8.724;2022-08-21T06:17:08;8.25;;;6.22;;
11222;SDS011;5668;52.012;8.724;2022-08-21T06:19:37;8.65;;;6.47;;
11222;SDS011;5668;52.012;8.724;2022-08-21T06:22:05;9.00;;;5.95;;
11222;SDS011;5668;52.012;8.724;2022-08-21T06:24:33;8.90;;;5.40;;
11222;SDS011;5668;52.012;8.724;2022-08-21T06:27:03;7.93;;;6.20;;
11222;SDS011;5668;52.012;8.724;2022-08-21T06:29:31;8.95;;;6.15;;
11222;SDS011;5668;52.012;8.724;2022-08-21T06:32:00;10.65;;;6.22;;
11222;SDS011;5668;52.012;8.724;2022-08-21T06:34:29;9.07;;;6.53;;
11222;SDS011;5668;52.012;8.724;2022-08-21T06:36:56;7.63;;;5.82;;
11222;SDS011;5668;52.012;8.724;2022-08-21T06:39:23;7.10;;;5.90;;
11222;SDS011;5668;52.012;8.724;2022-08-21T06:41:50;10.60;;;6.60;;
11222;SDS011;5668;52.012;8.724;2022-08-21T06:44:18;7.53;;;5.18;;
11222;SDS011;5668;52.012;8.724;2022-08-21T06:46:45;7.72;;;5.28;;
11222;SDS011;5668;52.012;8.724;2022-08-21T06:49:13;7.53;;;4.70;;
11222;SDS011;5668;52.012;8.724;2022-08-21T06:51:41;6.22;;;4.85;;
11222;SDS011;5668;52.012;8.724;2022-08-21T06:54:08;8.05;;;4.68;;
11222;SDS011;5668;52.012;8.724;2022-08-21T06:56:35;7.07;;;4.20;;
11222;SDS011;5668;52.012;8.724;2022-08-21T06:59:03;5.82;;;4.40;;
11222;SDS011;5668;52.012;8.724;2022-08-21T07:01:31;5.72;;;3.75;;
11222;SDS011;5668;52.012;8.724;2022-08-21T07:03:58;7.55;;;4.35;;
11222;SDS011;5668;52.012;8.724;2022-08-21T07:06:27;9.25;;;4.32;;
11222;SDS011;5668;52.012;8.724;2022-08-21T07:08:54;5.03;;;3.72;;
11222;SDS011;5668;52.012;8.724;2022-08-21T07:11:22;8.55;;;4.35;;
11222;SDS011;5668;52.012;8.724;2022-08-21T07:13:51;4.15;;;3.33;;
11222;SDS011;5668;52.012;8.724;2022-08-21T07:16:21;4.88;;;3.50;;
11222;SDS011;5668;52.012;8.724;2022-08-21T07:18:49;6.82;;;3.30;;
11222;SDS011;5668;52.012;8.724;2022-08-21T07:21:16;5.43;;;3.03;;
11222;SDS011;5668;52.012;8.724;2022-08-21T07:23:46;6.93;;;3.35;;
11222;SDS011;5668;52.012;8.724;2022-08-21T07:26:16;7.90;;;4.43;;
11222;SDS011;5668;52.012;8.724;2022-08-21T07:28:45;11.30;;;4.10;;
11222;SDS011;5668;52.012;8.724;2022-08-21T07:31:14;6.70;;;3.35;;
11222;SDS011;5668;52.012;8.724;2022-08-21T07:33:43;4.97;;;3.00;;
11222;SDS011;5668;52.012;8.724;2022-08-21T07:36:11;6.53;;;2.40;;
11222;SDS011;5668;52.012;8.724;2022-08-21T07:38:39;4.82;;;2.83;;
11222;SDS011;5668;52.012;8.724;2022-08-21T07:41:10;5.60;;;3.58;;
11222;SDS011;5668;52.012;8.724;2022-08-21T07:43:41;5.78;;;3.00;;
11222;SDS011;5668;52.012;8.724;2022-08-21T07:46:08;5.20;;;3.05;;
11222;SDS011;5668;52.012;8.724;2022-08-21T07:48:36;6.15;;;3.33;;
11222;SDS011;5668;52.012;8.724;2022-08-21T07:51:06;5.70;;;3.10;;
11222;SDS011;5668;52.012;8.724;2022-08-21T07:53:35;5.85;;;2.55;;
11222;SDS011;5668;52.012;8.724;2022-08-21T07:56:03;5.03;;;2.30;;
11222;SDS011;5668;52.012;8.724;2022-08-21T07:58:33;4.40;;;2.40;;
11222;SDS011;5668;52.012;8.724;2022-08-21T08:01:00;6.63;;;3.20;;
11222;SDS011;5668;52.012;8.724;2022-08-21T08:03:27;6.43;;;2.97;;
11222;SDS011;5668;52.012;8.724;2022-08-21T08:05:55;4.95;;;2.80;;
11222;SDS011;5668;52.012;8.724;2022-08-21T08:08:23;5.70;;;2.80;;
11222;SDS011;5668;52.012;8.724;2022-08-21T08:10:50;5.45;;;2.80;;
11222;SDS011;5668;52.012;8.724;2022-08-21T08:13:18;5.78;;;2.45;;
11222;SDS011;5668;52.012;8.724;2022-08-21T08:15:46;4.60;;;2.00;;
11222;SDS011;5668;52.012;8.724;2022-08-21T08:18:14;4.18;;;2.30;;
11222;SDS011;5668;52.012;8.724;2022-08-21T08:20:41;4.97;;;1.83;;
11222;SDS011;5668;52.012;8.724;2022-08-21T08:23:09;4.25;;;2.10;;
11222;SDS011;5668;52.012;8.724;2022-08-21T08:25:37;8.85;;;2.47;;
11222;SDS011;5668;52.012;8.724;2022-08-21T08:28:06;7.93;;;2.50;;
11222;SDS011;5668;52.012;8.724;2022-08-21T08:30:34;7.07;;;2.50;;
11222;SDS011;5668;52.012;8.724;2022-08-21T08:33:03;5.10;;;2.40;;
11222;SDS011;5668;52.012;8.724;2022-08-21T08:35:30;3.60;;;1.95;;
11222;SDS011;5668;52.012;8.724;2022-08-21T08:37:57;5.75;;;2.30;;
11222;SDS011;5668;52.012;8.724;2022-08-21T08:40:25;3.97;;;2.00;;
11222;SDS011;5668;52.012;8.724;2022-08-21T08:42:59;7.82;;;2.10;;
11222;SDS011;5668;52.012;8.724;2022-08-21T08:45:26;3.45;;;1.90;;
11222;SDS011;5668;52.012;8.724;2022-08-21T08:47:57;3.30;;;1.80;;
11222;SDS011;5668;52.012;8.724;2022-08-21T08:50:33;5.40;;;2.22;;
11222;SDS011;5668;52.012;8.724;2022-08-21T08:53:06;7.20;;;2.00;;
11222;SDS011;5668;52.012;8.724;2022-08-21T08:55:38;3.63;;;1.70;;
11222;SDS011;5668;52.012;8.724;2022-08-21T08:58:08;6.47;;;1.98;;
11222;SDS011;5668;52.012;8.724;2022-08-21T09:00:38;4.75;;;2.00;;
11222;SDS011;5668;52.012;8.724;2022-08-21T09:03:05;3.35;;;1.50;;
11222;SDS011;5668;52.012;8.724;2022-08-21T09:05:36;3.47;;;1.40;;
11222;SDS011;5668;52.012;8.724;2022-08-21T09:08:14;4.00;;;1.83;;
11222;SDS011;5668;52.012;8.724;2022-08-21T09:10:56;5.22;;;1.77;;
11222;SDS011;5668;52.012;8.724;2022-08-21T09:13:30;4.10;;;1.55;;
11222;SDS011;5668;52.012;8.724;2022-08-21T09:16:09;3.00;;;1.63;;
11222;SDS011;5668;52.012;8.724;2022-08-21T09:18:49;4.70;;;1.75;;
11222;SDS011;5668;52.012;8.724;2022-08-21T09:21:28;5.32;;;1.70;;
11222;SDS011;5668;52.012;8.724;2022-08-21T09:24:06;8.00;;;1.92;;
11222;SDS011;5668;52.012;8.724;2022-08-21T09:26:49;4.97;;;2.00;;
11222;SDS011;5668;52.012;8.724;2022-08-21T09:29:26;2.08;;;1.30;;
11222;SDS011;5668;52.012;8.724;2022-08-21T09:31:57;4.88;;;1.98;;
11222;SDS011;5668;52.012;8.724;2022-08-21T09:34:25;4.05;;;1.75;;
11222;SDS011;5668;52.012;8.724;2022-08-21T09:36:55;3.50;;;1.42;;
11222;SDS011;5668;52.012;8.724;2022-08-21T09:39:25;4.10;;;1.60;;
11222;SDS011;5668;52.012;8.724;2022-08-21T09:41:57;5.32;;;1.80;;
11222;SDS011;5668;52.012;8.724;2022-08-21T09:44:27;3.85;;;1.60;;
11222;SDS011;5668;52.012;8.724;2022-08-21T09:46:57;3.40;;;1.50;;
11222;SDS011;5668;52.012;8.724;2022-08-21T09:49:28;3.58;;;1.65;;
11222;SDS011;5668;52.012;8.724;2022-08-21T09:51:57;6.22;;;2.05;;
11222;SDS011;5668;52.012;8.724;2022-08-21T09:54:26;4.35;;;1.80;;
11222;SDS011;5668;52.012;8.724;2022-08-21T09:56:58;5.07;;;1.98;;
11222;SDS011;5668;52.012;8.724;2022-08-21T09:59:45;4.90;;;1.67;;
11222;SDS011;5668;52.012;8.724;2022-08-21T10:02:21;4.72;;;1.60;;
11222;SDS011;5668;52.012;8.724;2022-08-21T10:04:52;4.32;;;1.90;;
11222;SDS011;5668;52.012;8.724;2022-08-21T10:07:22;5.38;;;2.10;;
11222;SDS011;5668;52.012;8.724;2022-08-21T10:09:58;8.52;;;1.60;;
11222;SDS011;5668;52.012;8.724;2022-08-21T10:12:29;3.65;;;2.08;;
11222;SDS011;5668;52.012;8.724;2022-08-21T10:15:06;4.35;;;2.15;;
11222;SDS011;5668;52.012;8.724;2022-08-21T10:17:43;3.50;;;1.65;;
11222;SDS011;5668;52.012;8.724;2022-08-21T10:20:19;4.13;;;1.83;;
11222;SDS011;5668;52.012;8.724;2022-08-21T10:22:53;4.13;;;1.80;;
11222;SDS011;5668;52.012;8.724;2022-08-21T10:25:35;3.70;;;1.90;;
11222;SDS011;5668;52.012;8.724;2022-08-21T10:28:10;5.53;;;1.92;;
11222;SDS011;5668;52.012;8.724;2022-08-21T10:30:46;5.03;;;1.77;;
11222;SDS011;5668;52.012;8.724;2022-08-21T10:33:28;5.30;;;2.17;;
11222;SDS011;5668;52.012;8.724;2022-08-21T10:36:04;3.83;;;2.00;;
11222;SDS011;5668;52.012;8.724;2022-08-21T10:38:42;2.55;;;1.30;;
11222;SDS011;5668;52.012;8.724;2022-08-21T10:41:21;4.90;;;2.13;;
11222;SDS011;5668;52.012;8.724;2022-08-21T10:44:05;2.55;;;1.63;;
11222;SDS011;5668;52.012;8.724;2022-08-21T10:46:42;2.95;;;1.70;;
11222;SDS011;5668;52.012;8.724;2022-08-21T10:49:17;4.22;;;1.90;;
11222;SDS011;5668;52.012;8.724;2022-08-21T10:51:54;5.15;;;1.83;;
11222;SDS011;5668;52.012;8.724;2022-08-21T10:54:35;4.50;;;2.30;;
11222;SDS011;5668;52.012;8.724;2022-08-21T10:57:11;4.10;;;1.70;;
11222;SDS011;5668;52.012;8.724;2022-08-21T10:59:47;4.93;;;2.00;;
11222;SDS011;5668;52.012;8.724;2022-08-21T11:02:20;5.30;;;1.88;;
11222;SDS011;5668;52.012;8.724;2022-08-21T11:04:54;3.40;;;1.90;;
11222;SDS011;5668;52.012;8.724;2022-08-21T11:07:26;4.40;;;1.80;;
11222;SDS011;5668;52.012;8.724;2022-08-21T11:09:59;3.33;;;1.85;;
11222;SDS011;5668;52.012;8.724;2022-08-21T11:12:37;3.85;;;1.70;;
11222;SDS011;5668;52.012;8.724;2022-08-21T11:15:12;4.05;;;1.80;;
11222;SDS011;5668;52.012;8.724;2022-08-21T11:17:51;2.92;;;1.60;;
11222;SDS011;5668;52.012;8.724;2022-08-21T11:20:26;6.05;;;1.73;;
11222;SDS011;5668;52.012;8.724;2022-08-21T11:23:00;3.05;;;1.60;;
11222;SDS011;5668;52.012;8.724;2022-08-21T11:25:35;2.97;;;1.60;;
11222;SDS011;5668;52.012;8.724;2022-08-21T11:28:08;3.72;;;1.83;;
11222;SDS011;5668;52.012;8.724;2022-08-21T11:30:40;3.78;;;1.70;;
11222;SDS011;5668;52.012;8.724;2022-08-21T11:33:23;7.60;;;1.65;;
11222;SDS011;5668;52.012;8.724;2022-08-21T11:35:59;5.05;;;1.73;;
11222;SDS011;5668;52.012;8.724;2022-08-21T11:38:36;3.75;;;1.65;;
11222;SDS011;5668;52.012;8.724;2022-08-21T11:41:11;4.18;;;1.70;;
11222;SDS011;5668;52.012;8.724;2022-08-21T11:43:47;3.60;;;2.13;;
11222;SDS011;5668;52.012;8.724;2022-08-21T11:46:19;4.97;;;1.90;;
11222;SDS011;5668;52.012;8.724;2022-08-21T11:48:59;5.93;;;1.65;;
11222;SDS011;5668;52.012;8.724;2022-08-21T11:51:38;4.68;;;1.75;;
11222;SDS011;5668;52.012;8.724;2022-08-21T11:54:21;2.90;;;1.63;;
11222;SDS011;5668;52.012;8.724;2022-08-21T11:56:55;2.95;;;1.90;;
11222;SDS011;5668;52.012;8.724;2022-08-21T11:59:30;4.72;;;1.58;;
11222;SDS011;5668;52.012;8.724;2022-08-21T12:02:02;3.45;;;1.60;;
11222;SDS011;5668;52.012;8.724;2022-08-21T12:04:42;4.25;;;1.85;;
11222;SDS011;5668;52.012;8.724;2022-08-21T12:07:17;3.10;;;1.45;;
11222;SDS011;5668;52.012;8.724;2022-08-21T12:09:57;2.33;;;1.33;;
11222;SDS011;5668;52.012;8.724;2022-08-21T12:12:29;3.42;;;1.30;;
11222;SDS011;5668;52.012;8.724;2022-08-21T12:15:24;3.35;;;1.30;;
11222;SDS011;5668;52.012;8.724;2022-08-21T12:17:55;3.15;;;1.30;;
11222;SDS011;5668;52.012;8.724;2022-08-21T12:20:32;2.90;;;1.33;;
11222;SDS011;5668;52.012;8.724;2022-08-21T12:23:04;4.80;;;1.80;;
11222;SDS011;5668;52.012;8.724;2022-08-21T12:25:42;4.10;;;1.70;;
11222;SDS011;5668;52.012;8.724;2022-08-21T12:28:14;4.07;;;1.60;;
11222;SDS011;5668;52.012;8.724;2022-08-21T12:30:48;2.63;;;1.33;;
11222;SDS011;5668;52.012;8.724;2022-08-21T12:33:20;2.83;;;1.40;;
11222;SDS011;5668;52.012;8.724;2022-08-21T12:35:50;2.80;;;1.45;;
11222;SDS011;5668;52.012;8.724;2022-08-21T12:38:20;2.95;;;1.48;;
11222;SDS011;5668;52.012;8.724;2022-08-21T12:40:55;3.30;;;1.35;;
11222;SDS011;5668;52.012;8.724;2022-08-21T12:43:27;1.73;;;1.42;;
11222;SDS011;5668;52.012;8.724;2022-08-21T12:45:59;2.25;;;1.50;;
11222;SDS011;5668;52.012;8.724;2022-08-21T12:48:31;3.53;;;1.50;;
11222;SDS011;5668;52.012;8.724;2022-08-21T12:51:07;3.63;;;1.50;;
11222;SDS011;5668;52.012;8.724;2022-08-21T12:53:40;4.05;;;1.42;;
11222;SDS011;5668;52.012;8.724;2022-08-21T12:56:13;4.53;;;1.50;;
11222;SDS011;5668;52.012;8.724;2022-08-21T12:58:45;2.65;;;1.75;;
11222;SDS011;5668;52.012;8.724;2022-08-21T13:01:16;3.40;;;1.70;;
11222;SDS011;5668;52.012;8.724;2022-08-21T13:03:48;5.15;;;1.60;;
11222;SDS011;5668;52.012;8.724;2022-08-21T13:06:17;2.72;;;1.80;;
11222;SDS011;5668;52.012;8.724;2022-08-21T13:08:46;3.42;;;1.58;;
11222;SDS011;5668;52.012;8.724;2022-08-21T13:11:18;3.72;;;1.67;;
11222;SDS011;5668;52.012;8.724;2022-08-21T13:13:49;3.83;;;1.33;;
11222;SDS011;5668;52.012;8.724;2022-08-21T13:16:19;5.57;;;1.60;;
11222;SDS011;5668;52.012;8.724;2022-08-21T13:18:54;3.28;;;1.60;;
11222;SDS011;5668;52.012;8.724;2022-08-21T13:21:27;3.10;;;1.30;;
11222;SDS011;5668;52.012;8.724;2022-08-21T13:24:06;3.03;;;1.60;;
11222;SDS011;5668;52.012;8.724;2022-08-21T13:26:36;2.72;;;1.92;;
11222;SDS011;5668;52.012;8.724;2022-08-21T13:29:07;3.15;;;1.60;;
11222;SDS011;5668;52.012;8.724;2022-08-21T13:31:36;2.50;;;1.40;;
11222;SDS011;5668;52.012;8.724;2022-08-21T13:34:07;3.58;;;1.55;;
11222;SDS011;5668;52.012;8.724;2022-08-21T13:36:37;2.72;;;1.50;;
11222;SDS011;5668;52.012;8.724;2022-08-21T13:39:08;3.90;;;1.65;;
11222;SDS011;5668;52.012;8.724;2022-08-21T13:41:38;2.72;;;1.45;;
11222;SDS011;5668;52.012;8.724;2022-08-21T13:44:15;1.88;;;1.00;;
11222;SDS011;5668;52.012;8.724;2022-08-21T13:46:44;1.35;;;1.10;;
11222;SDS011;5668;52.012;8.724;2022-08-21T13:49:13;2.15;;;1.27;;
11222;SDS011;5668;52.012;8.724;2022-08-21T13:51:42;3.78;;;1.40;;
11222;SDS011;5668;52.012;8.724;2022-08-21T13:54:15;2.45;;;1.30;;
11222;SDS011;5668;52.012;8.724;2022-08-21T13:56:48;2.90;;;1.20;;
11222;SDS011;5668;52.012;8.724;2022-08-21T13:59:25;2.25;;;1.20;;
11222;SDS011;5668;52.012;8.724;2022-08-21T14:01:54;2.05;;;1.33;;
11222;SDS011;5668;52.012;8.724;2022-08-21T14:04:25;2.20;;;1.23;;
11222;SDS011;5668;52.012;8.724;2022-08-21T14:06:58;2.45;;;1.30;;
11222;SDS011;5668;52.012;8.724;2022-08-21T14:09:28;1.50;;;1.08;;
11222;SDS011;5668;52.012;8.724;2022-08-21T14:11:58;2.17;;;1.10;;
11222;SDS011;5668;52.012;8.724;2022-08-21T14:14:30;2.53;;;1.38;;
11222;SDS011;5668;52.012;8.724;2022-08-21T14:17:00;5.85;;;1.55;;
11222;SDS011;5668;52.012;8.724;2022-08-21T14:19:35;3.45;;;1.40;;
11222;SDS011;5668;52.012;8.724;2022-08-21T14:22:27;2.70;;;1.30;;
11222;SDS011;5668;52.012;8.724;2022-08-21T14:25:01;2.50;;;1.45;;
11222;SDS011;5668;52.012;8.724;2022-08-21T14:27:30;2.78;;;1.20;;
11222;SDS011;5668;52.012;8.724;2022-08-21T14:30:03;2.58;;;1.30;;
11222;SDS011;5668;52.012;8.724;2022-08-21T14:32:37;2.72;;;1.00;;
11222;SDS011;5668;52.012;8.724;2022-08-21T14:35:07;2.10;;;1.17;;
11222;SDS011;5668;52.012;8.724;2022-08-21T14:37:35;2.97;;;1.30;;
11222;SDS011;5668;52.012;8.724;2022-08-21T14:40:03;3.03;;;1.50;;
11222;SDS011;5668;52.012;8.724;2022-08-21T14:42:31;4.25;;;1.52;;
11222;SDS011;5668;52.012;8.724;2022-08-21T14:45:01;3.05;;;1.52;;
11222;SDS011;5668;52.012;8.724;2022-08-21T14:47:33;2.25;;;1.30;;
11222;SDS011;5668;52.012;8.724;2022-08-21T14:50:02;2.08;;;1.30;;
11222;SDS011;5668;52.012;8.724;2022-08-21T14:52:31;3.05;;;1.40;;
11222;SDS011;5668;52.012;8.724;2022-08-21T14:54:58;2.38;;;1.38;;
11222;SDS011;5668;52.012;8.724;2022-08-21T14:57:26;1.90;;;1.45;;
11222;SDS011;5668;52.012;8.724;2022-08-21T14:59:56;3.53;;;1.50;;
11222;SDS011;5668;52.012;8.724;2022-08-21T15:02:25;2.30;;;1.40;;
11222;SDS011;5668;52.012;8.724;2022-08-21T15:04:53;3.30;;;1.70;;
11222;SDS011;5668;52.012;8.724;2022-08-21T15:07:20;4.05;;;1.65;;
11222;SDS011;5668;52.012;8.724;2022-08-21T15:09:47;5.25;;;1.73;;
11222;SDS011;5668;52.012;8.724;2022-08-21T15:12:14;2.85;;;1.48;;
11222;SDS011;5668;52.012;8.724;2022-08-21T15:14:42;3.55;;;1.73;;
11222;SDS011;5668;52.012;8.724;2022-08-21T15:17:10;5.63;;;1.48;;
11222;SDS011;5668;52.012;8.724;2022-08-21T15:19:39;3.40;;;1.60;;